Tuesday, October 16, 2018, 11:02 AM GMT
Back to Local

CYMX, Montreal / Mirabel

Location: , , Canada Lat: 45.683
Local Time: 11:02 AM GMT (11:02 GMT) Lon: -74.033
Time Zone: GMT Elev: 269 ft

Show me the last for .
Show Decoded

2018-10-16 10:00 METAR CYMX 161000Z 27011G21KT 230V310 25SM FEW030 03/M01 A2991 RMK SC2 SLP131 =
2018-10-16 09:00 METAR CYMX 160900Z 26015G22KT 230V290 25SM FEW030 FEW040 03/M00 A2985 RMK SC1SC1
                 PRESRR SLP114 =
2018-10-16 08:00 METAR CYMX 160800Z 26010G26KT 210V290 25SM SCT032 BKN041 04/00 A2983 RMK SC4SC1
                 SLP105 =
2018-10-16 07:10 METAR CYMX 160710Z 25016G26KT 25SM -SHRA SCT031 BKN040 OVC051 04/M01 A2981 RMK
                 SC3SC4SC1 CVCTV CLD EMBD SLP098 =
2018-10-16 07:00 METAR CYMX 160700Z 26014G26KT 220V280 25SM FEW032 BKN041 BKN051 05/M01 A2980 RMK
                 SC1SC4SC2 SLP094 =
2018-10-16 06:00 METAR CYMX 160600Z 25014G24KT 25SM BKN033 OVC041 05/M01 A2978 RMK SC6SC2 SLP089
                 =
2018-10-16 05:00 METAR CYMX 160500Z 25012G31KT 220V280 25SM SCT033 BKN042 06/M00 A2974 RMK SC4SC2
                 SLP076 =
2018-10-16 04:45 METAR CYMX 160445Z 25018G29KT 25SM BKN035 BKN100 05/M00 A2974 RMK SC5AC1 SLP075
                 =
2018-10-16 04:07 METAR CYMX 160407Z 30017G31KT 220V320 25SM -SHRA SCT033 BKN042 06/01 A2973 RMK
                 SC3SC4 CVCTV CLD EMBD PRESRR SLP072 =
2018-10-16 04:00 METAR CYMX 160400Z 26014G26KT 220V280 25SM FEW030 BKN040 BKN100 07/01 A2971 RMK
                 CF1SC5AC2 CF TR SLP063 =
2018-10-16 03:00 METAR CYMX 160300Z 25019G32KT 220V280 25SM FEW030 FEW040 SCT097 07/01 A2968 RMK
                 CF1SC1AC3 CF TR SLP055 =
2018-10-16 02:00 METAR CYMX 160200Z 25016G27KT 25SM FEW030 FEW050 08/02 A2965 RMK SC1SC1 SLP044 =
2018-10-16 01:00 METAR CYMX 160100Z 26015G31KT 230V290 25SM SCT024 SCT050 10/07 A2962 RMK SC3SC1
                 SLP033 =
2018-10-16 00:00 METAR CYMX 160000Z 26016G26KT 25SM SCT020 BKN035 OVC047 12/09 A2959 RMK
                 SC4SC2SC2 SLP025 DENSITY ALT 400FT =
2018-10-15 23:11 METAR CYMX 152311Z 24008G19KT 200V280 25SM FEW010 BKN022 OVC055 12/11 A2959 RMK
                 SF2SC5SC1 SLP023 DENSITY ALT 400FT =
2018-10-15 23:00 METAR CYMX 152300Z 23011G21KT 25SM BKN006 OVC017 12/11 A2958 RMK SF5SC3 SLP021
                 DENSITY ALT 400FT =
2018-10-15 22:40 METAR CYMX 152240Z 22011G16KT 8SM BKN005 OVC014 11/11 A2958 RMK SF6SC2 SLP020
                 DENSITY ALT 300FT =
2018-10-15 22:00 METAR CYMX 152200Z 20007KT 3SM -RA BR BKN005 OVC014 10/10 A2958 RMK SF7SC1
                 SLP020 =
2018-10-15 21:53 METAR CYMX 152153Z 19008KT 3SM -RA BR FEW002 BKN005 OVC014 10/09 A2958 RMK
                 SF1SF6SC1 SLP020 =
2018-10-15 21:42 METAR CYMX 152142Z 17006KT 140V200 2 1/2SM -RA BR SCT003 BKN006 OVC012 09/09
                 A2958 RMK FG1SF3SF3SC1 SLP022 =
2018-10-15 21:00 METAR CYMX 152100Z 17005KT 2SM -RA BR OVC003 09/08 A2961 RMK FG2SF6 PRESFR
                 SLP031 =
2018-10-15 20:19 METAR CYMX 152019Z 16006KT 2 1/2SM -RA BR OVC003 08/08 A2964 RMK FG2SF6 PRESFR
                 SLP042 =
2018-10-15 20:00 METAR CYMX 152000Z 17005KT 120V190 2SM -RA BR OVC002 08/08 A2966 RMK FG4SF4
                 SLP048 =
2018-10-15 19:28 METAR CYMX 151928Z 16005KT 2SM R11/5000VP6000FT/D -RA BR OVC003 08/08 A2969 RMK
                 FG5SF3 CIG VRB 2-4 SLP058 =
2018-10-15 19:00 METAR CYMX 151900Z 15004KT 2 1/2SM -RA BR BKN004 OVC014 08/08 A2971 RMK
                 FG3SF4SC1 CIG VRB 3-5 PRESFR SLP064 =
2018-10-15 18:00 METAR CYMX 151800Z 14005KT 2 1/2SM R11/5000VP6000FT/D -RA BR OVC004 08/08 A2975
                 RMK FG4SF4 PRESFR SLP079 =
2018-10-15 17:43 METAR CYMX 151743Z 15005KT 120V180 3SM -RA BR BKN006 OVC013 08/08 A2978 RMK
                 SF7SC1 PRESFR SLP087 =
2018-10-15 17:31 METAR CYMX 151731Z 14006KT 5SM -RA BR FEW007 OVC016 09/08 A2978 RMK SF1SC7
                 PRESFR SLP090 =
2018-10-15 17:00 METAR CYMX 151700Z 16004KT 120V210 15SM -RA SCT038 BKN060 OVC150 09/07 A2982 RMK
                 SC3SC4AC1 SLP101 =
2018-10-15 16:28 METAR CYMX 151628Z 16004KT 100V210 15SM -RA FEW046 FEW059 BKN092 OVC160 10/07
                 A2984 RMK SC1SC1AC4AS3 SC TR SLP109 =
2018-10-15 16:11 METAR CYMX 151611Z 14005KT 15SM FEW045 SCT070 BKN087 OVC160 10/07 A2985 RMK
                 SC1AC3AC2AS3 SC TR PRESFR SLP113 =
2018-10-15 16:00 METAR CYMX 151600Z 16005KT 110V190 15SM FEW045 BKN072 OVC160 10/07 A2986 RMK
                 SC1AC4AS3 INTMT -RA SLP116 =
2018-10-15 15:24 METAR CYMX 151524Z 12006KT 110V170 25SM -SHRA SCT045 BKN080 OVC150 10/07 A2988
                 RMK SC3AC3AC2 CVCTV CLD EMBD PRESFR SLP122 =
2018-10-15 15:00 METAR CYMX 151500Z 14005KT 090V180 25SM FEW055 BKN080 OVC160 09/07 A2991 RMK
                 SC1AC4AC3 SLP132 =
2018-10-15 14:00 METAR CYMX 151400Z 06004KT 020V090 20SM SCT170 BKN220 07/05 A2994 RMK AC4CI3
                 SLP143 =
2018-10-15 13:00 METAR CYMX 151300Z 05004KT 010V070 30SM BKN060 BKN150 OVC250 06/05 A2999 RMK
                 SC5AC2CI1 SLP158 =
2018-10-15 12:00 METAR CYMX 151200Z 04003KT 010V080 35SM BKN054 BKN150 OVC240 05/04 A3002 RMK
                 SC5AC2CI1 SLP168 =

Support USWX by starting your Amazon purchase here.